sensor_id;sensor_type;location;lat;lon;timestamp;P1;durP1;ratioP1;P2;durP2;ratioP2
7332;SDS011;3707;43.618;25.342;2022-08-19T00:01:55;7.20;;;6.15;;
7332;SDS011;3707;43.618;25.342;2022-08-19T00:04:24;8.77;;;6.65;;
7332;SDS011;3707;43.618;25.342;2022-08-19T00:06:52;10.77;;;6.25;;
7332;SDS011;3707;43.618;25.342;2022-08-19T00:09:20;7.72;;;6.88;;
7332;SDS011;3707;43.618;25.342;2022-08-19T00:11:48;6.43;;;5.82;;
7332;SDS011;3707;43.618;25.342;2022-08-19T00:14:17;7.85;;;6.30;;
7332;SDS011;3707;43.618;25.342;2022-08-19T00:16:46;8.95;;;6.70;;
7332;SDS011;3707;43.618;25.342;2022-08-19T00:19:13;7.40;;;6.70;;
7332;SDS011;3707;43.618;25.342;2022-08-19T00:21:41;10.38;;;6.13;;
7332;SDS011;3707;43.618;25.342;2022-08-19T00:24:09;9.10;;;6.18;;
7332;SDS011;3707;43.618;25.342;2022-08-19T00:26:37;7.43;;;6.57;;
7332;SDS011;3707;43.618;25.342;2022-08-19T00:29:05;7.28;;;6.10;;
7332;SDS011;3707;43.618;25.342;2022-08-19T00:31:34;6.82;;;5.72;;
7332;SDS011;3707;43.618;25.342;2022-08-19T00:34:02;7.82;;;6.22;;
7332;SDS011;3707;43.618;25.342;2022-08-19T00:36:29;6.55;;;5.95;;
7332;SDS011;3707;43.618;25.342;2022-08-19T00:38:58;6.30;;;5.70;;
7332;SDS011;3707;43.618;25.342;2022-08-19T00:41:25;8.52;;;6.45;;
7332;SDS011;3707;43.618;25.342;2022-08-19T00:43:59;7.38;;;6.43;;
7332;SDS011;3707;43.618;25.342;2022-08-19T00:46:28;7.50;;;6.10;;
7332;SDS011;3707;43.618;25.342;2022-08-19T00:48:56;8.88;;;6.40;;
7332;SDS011;3707;43.618;25.342;2022-08-19T00:51:24;11.20;;;5.88;;
7332;SDS011;3707;43.618;25.342;2022-08-19T00:53:51;6.97;;;5.97;;
7332;SDS011;3707;43.618;25.342;2022-08-19T00:56:20;8.85;;;6.65;;
7332;SDS011;3707;43.618;25.342;2022-08-19T00:58:47;6.55;;;6.05;;
7332;SDS011;3707;43.618;25.342;2022-08-19T01:01:14;6.47;;;5.85;;
7332;SDS011;3707;43.618;25.342;2022-08-19T01:03:41;7.10;;;6.40;;
7332;SDS011;3707;43.618;25.342;2022-08-19T01:06:09;6.60;;;5.93;;
7332;SDS011;3707;43.618;25.342;2022-08-19T01:08:36;6.63;;;5.95;;
7332;SDS011;3707;43.618;25.342;2022-08-19T01:11:03;8.27;;;6.70;;
7332;SDS011;3707;43.618;25.342;2022-08-19T01:13:31;8.48;;;6.57;;
7332;SDS011;3707;43.618;25.342;2022-08-19T01:16:02;9.63;;;6.10;;
7332;SDS011;3707;43.618;25.342;2022-08-19T01:18:32;7.95;;;7.13;;
7332;SDS011;3707;43.618;25.342;2022-08-19T01:21:05;7.65;;;6.47;;
7332;SDS011;3707;43.618;25.342;2022-08-19T01:23:42;7.97;;;6.47;;
7332;SDS011;3707;43.618;25.342;2022-08-19T01:26:11;11.73;;;6.68;;
7332;SDS011;3707;43.618;25.342;2022-08-19T01:28:40;11.65;;;7.00;;
7332;SDS011;3707;43.618;25.342;2022-08-19T01:31:10;9.20;;;6.95;;
7332;SDS011;3707;43.618;25.342;2022-08-19T01:33:39;9.63;;;7.03;;
7332;SDS011;3707;43.618;25.342;2022-08-19T01:36:07;8.75;;;7.50;;
7332;SDS011;3707;43.618;25.342;2022-08-19T01:38:38;9.18;;;7.60;;
7332;SDS011;3707;43.618;25.342;2022-08-19T01:41:09;14.85;;;8.20;;
7332;SDS011;3707;43.618;25.342;2022-08-19T01:43:36;9.85;;;8.13;;
7332;SDS011;3707;43.618;25.342;2022-08-19T01:46:03;8.70;;;7.75;;
7332;SDS011;3707;43.618;25.342;2022-08-19T01:48:34;10.13;;;7.45;;
7332;SDS011;3707;43.618;25.342;2022-08-19T01:51:03;10.43;;;8.13;;
7332;SDS011;3707;43.618;25.342;2022-08-19T01:53:31;7.97;;;7.18;;
7332;SDS011;3707;43.618;25.342;2022-08-19T01:55:58;10.45;;;8.07;;
7332;SDS011;3707;43.618;25.342;2022-08-19T01:58:27;9.30;;;7.97;;
7332;SDS011;3707;43.618;25.342;2022-08-19T02:00:56;9.23;;;8.00;;
7332;SDS011;3707;43.618;25.342;2022-08-19T02:03:24;9.88;;;7.70;;
7332;SDS011;3707;43.618;25.342;2022-08-19T02:05:53;11.27;;;8.27;;
7332;SDS011;3707;43.618;25.342;2022-08-19T02:08:21;11.35;;;7.28;;
7332;SDS011;3707;43.618;25.342;2022-08-19T02:10:48;10.25;;;8.48;;
7332;SDS011;3707;43.618;25.342;2022-08-19T02:13:16;8.65;;;7.55;;
7332;SDS011;3707;43.618;25.342;2022-08-19T02:15:44;9.20;;;7.30;;
7332;SDS011;3707;43.618;25.342;2022-08-19T02:18:11;12.35;;;8.27;;
7332;SDS011;3707;43.618;25.342;2022-08-19T02:20:39;11.80;;;8.13;;
7332;SDS011;3707;43.618;25.342;2022-08-19T02:23:08;12.15;;;7.68;;
7332;SDS011;3707;43.618;25.342;2022-08-19T02:25:36;10.30;;;8.50;;
7332;SDS011;3707;43.618;25.342;2022-08-19T02:28:04;12.85;;;7.53;;
7332;SDS011;3707;43.618;25.342;2022-08-19T02:30:31;8.70;;;7.80;;
7332;SDS011;3707;43.618;25.342;2022-08-19T02:33:00;11.40;;;7.78;;
7332;SDS011;3707;43.618;25.342;2022-08-19T02:35:26;10.55;;;7.82;;
7332;SDS011;3707;43.618;25.342;2022-08-19T02:37:53;11.13;;;8.10;;
7332;SDS011;3707;43.618;25.342;2022-08-19T02:40:38;8.80;;;7.90;;
7332;SDS011;3707;43.618;25.342;2022-08-19T02:43:05;11.20;;;8.20;;
7332;SDS011;3707;43.618;25.342;2022-08-19T02:45:34;8.30;;;7.50;;
7332;SDS011;3707;43.618;25.342;2022-08-19T02:48:03;10.63;;;8.55;;
7332;SDS011;3707;43.618;25.342;2022-08-19T02:50:30;8.85;;;7.95;;
7332;SDS011;3707;43.618;25.342;2022-08-19T02:52:57;10.18;;;7.63;;
7332;SDS011;3707;43.618;25.342;2022-08-19T02:55:24;8.35;;;7.32;;
7332;SDS011;3707;43.618;25.342;2022-08-19T02:57:51;9.07;;;8.18;;
7332;SDS011;3707;43.618;25.342;2022-08-19T03:00:18;10.55;;;8.10;;
7332;SDS011;3707;43.618;25.342;2022-08-19T03:02:45;9.85;;;7.63;;
7332;SDS011;3707;43.618;25.342;2022-08-19T03:05:15;12.60;;;7.88;;
7332;SDS011;3707;43.618;25.342;2022-08-19T03:07:42;11.80;;;7.90;;
7332;SDS011;3707;43.618;25.342;2022-08-19T03:10:09;11.77;;;8.25;;
7332;SDS011;3707;43.618;25.342;2022-08-19T03:12:36;9.85;;;7.25;;
7332;SDS011;3707;43.618;25.342;2022-08-19T03:15:05;9.52;;;8.32;;
7332;SDS011;3707;43.618;25.342;2022-08-19T03:17:34;10.00;;;7.88;;
7332;SDS011;3707;43.618;25.342;2022-08-19T03:20:02;12.35;;;8.18;;
7332;SDS011;3707;43.618;25.342;2022-08-19T03:22:31;10.07;;;8.02;;
7332;SDS011;3707;43.618;25.342;2022-08-19T03:24:59;9.85;;;8.38;;
7332;SDS011;3707;43.618;25.342;2022-08-19T03:27:25;9.48;;;8.43;;
7332;SDS011;3707;43.618;25.342;2022-08-19T03:29:52;16.63;;;8.25;;
7332;SDS011;3707;43.618;25.342;2022-08-19T03:32:19;16.38;;;8.23;;
7332;SDS011;3707;43.618;25.342;2022-08-19T03:34:47;11.10;;;7.53;;
7332;SDS011;3707;43.618;25.342;2022-08-19T03:37:14;11.52;;;8.10;;
7332;SDS011;3707;43.618;25.342;2022-08-19T03:39:42;11.07;;;7.68;;
7332;SDS011;3707;43.618;25.342;2022-08-19T03:42:09;12.18;;;7.60;;
7332;SDS011;3707;43.618;25.342;2022-08-19T03:44:36;12.55;;;8.10;;
7332;SDS011;3707;43.618;25.342;2022-08-19T03:47:04;11.00;;;8.27;;
7332;SDS011;3707;43.618;25.342;2022-08-19T03:49:31;13.35;;;8.02;;
7332;SDS011;3707;43.618;25.342;2022-08-19T03:52:00;8.55;;;7.63;;
7332;SDS011;3707;43.618;25.342;2022-08-19T03:54:30;8.80;;;7.63;;
7332;SDS011;3707;43.618;25.342;2022-08-19T03:56:58;14.48;;;8.07;;
7332;SDS011;3707;43.618;25.342;2022-08-19T03:59:26;10.75;;;6.93;;
7332;SDS011;3707;43.618;25.342;2022-08-19T04:01:55;19.33;;;8.43;;
7332;SDS011;3707;43.618;25.342;2022-08-19T04:04:23;12.75;;;7.28;;
7332;SDS011;3707;43.618;25.342;2022-08-19T04:06:51;13.65;;;7.15;;
7332;SDS011;3707;43.618;25.342;2022-08-19T04:09:19;13.20;;;7.07;;
7332;SDS011;3707;43.618;25.342;2022-08-19T04:11:47;13.93;;;7.35;;
7332;SDS011;3707;43.618;25.342;2022-08-19T04:14:17;9.38;;;6.97;;
7332;SDS011;3707;43.618;25.342;2022-08-19T04:16:46;10.45;;;7.35;;
7332;SDS011;3707;43.618;25.342;2022-08-19T04:19:15;8.38;;;7.10;;
7332;SDS011;3707;43.618;25.342;2022-08-19T04:21:43;14.52;;;7.05;;
7332;SDS011;3707;43.618;25.342;2022-08-19T04:24:12;9.07;;;7.13;;
7332;SDS011;3707;43.618;25.342;2022-08-19T04:26:40;13.00;;;7.63;;
7332;SDS011;3707;43.618;25.342;2022-08-19T04:29:07;9.98;;;7.32;;
7332;SDS011;3707;43.618;25.342;2022-08-19T04:31:37;10.85;;;7.35;;
7332;SDS011;3707;43.618;25.342;2022-08-19T04:34:07;11.52;;;7.15;;
7332;SDS011;3707;43.618;25.342;2022-08-19T04:36:36;20.45;;;7.15;;
7332;SDS011;3707;43.618;25.342;2022-08-19T04:39:06;10.52;;;6.97;;
7332;SDS011;3707;43.618;25.342;2022-08-19T04:41:35;14.77;;;6.80;;
7332;SDS011;3707;43.618;25.342;2022-08-19T04:44:29;11.65;;;7.68;;
7332;SDS011;3707;43.618;25.342;2022-08-19T04:46:58;11.30;;;7.38;;
7332;SDS011;3707;43.618;25.342;2022-08-19T04:49:25;11.55;;;7.70;;
7332;SDS011;3707;43.618;25.342;2022-08-19T04:51:52;12.88;;;7.32;;
7332;SDS011;3707;43.618;25.342;2022-08-19T04:54:20;11.35;;;7.78;;
7332;SDS011;3707;43.618;25.342;2022-08-19T04:56:48;10.60;;;8.05;;
7332;SDS011;3707;43.618;25.342;2022-08-19T04:59:16;17.65;;;9.25;;
7332;SDS011;3707;43.618;25.342;2022-08-19T05:01:43;11.82;;;8.77;;
7332;SDS011;3707;43.618;25.342;2022-08-19T05:04:17;17.90;;;9.38;;
7332;SDS011;3707;43.618;25.342;2022-08-19T05:06:45;19.98;;;9.80;;
7332;SDS011;3707;43.618;25.342;2022-08-19T05:09:14;23.02;;;9.63;;
7332;SDS011;3707;43.618;25.342;2022-08-19T05:11:42;19.23;;;8.52;;
7332;SDS011;3707;43.618;25.342;2022-08-19T05:14:10;16.85;;;9.02;;
7332;SDS011;3707;43.618;25.342;2022-08-19T05:16:38;17.63;;;8.50;;
7332;SDS011;3707;43.618;25.342;2022-08-19T05:19:06;16.52;;;7.85;;
7332;SDS011;3707;43.618;25.342;2022-08-19T05:21:52;17.48;;;8.70;;
7332;SDS011;3707;43.618;25.342;2022-08-19T05:24:51;14.27;;;8.05;;
7332;SDS011;3707;43.618;25.342;2022-08-19T05:27:18;21.20;;;8.45;;
7332;SDS011;3707;43.618;25.342;2022-08-19T05:29:45;29.98;;;9.18;;
7332;SDS011;3707;43.618;25.342;2022-08-19T05:32:11;22.98;;;8.80;;
7332;SDS011;3707;43.618;25.342;2022-08-19T05:34:38;16.98;;;9.52;;
7332;SDS011;3707;43.618;25.342;2022-08-19T05:37:06;19.40;;;8.85;;
7332;SDS011;3707;43.618;25.342;2022-08-19T05:39:34;16.77;;;8.40;;
7332;SDS011;3707;43.618;25.342;2022-08-19T05:42:03;19.77;;;8.85;;
7332;SDS011;3707;43.618;25.342;2022-08-19T05:44:32;16.67;;;9.13;;
7332;SDS011;3707;43.618;25.342;2022-08-19T05:47:01;13.90;;;8.63;;
7332;SDS011;3707;43.618;25.342;2022-08-19T05:49:30;11.38;;;7.47;;
7332;SDS011;3707;43.618;25.342;2022-08-19T05:51:58;9.32;;;7.57;;
7332;SDS011;3707;43.618;25.342;2022-08-19T05:54:30;10.50;;;8.77;;
7332;SDS011;3707;43.618;25.342;2022-08-19T05:56:57;15.07;;;8.63;;
7332;SDS011;3707;43.618;25.342;2022-08-19T05:59:23;9.50;;;8.15;;
7332;SDS011;3707;43.618;25.342;2022-08-19T06:01:51;10.65;;;7.63;;
7332;SDS011;3707;43.618;25.342;2022-08-19T06:04:19;9.45;;;8.02;;
7332;SDS011;3707;43.618;25.342;2022-08-19T06:06:46;10.38;;;8.68;;
7332;SDS011;3707;43.618;25.342;2022-08-19T06:09:16;9.90;;;8.35;;
7332;SDS011;3707;43.618;25.342;2022-08-19T06:11:45;11.52;;;8.90;;
7332;SDS011;3707;43.618;25.342;2022-08-19T06:14:14;12.93;;;8.88;;
7332;SDS011;3707;43.618;25.342;2022-08-19T06:16:43;9.07;;;8.18;;
7332;SDS011;3707;43.618;25.342;2022-08-19T06:19:11;10.10;;;8.45;;
7332;SDS011;3707;43.618;25.342;2022-08-19T06:21:40;8.75;;;7.45;;
7332;SDS011;3707;43.618;25.342;2022-08-19T06:24:11;12.48;;;8.10;;
7332;SDS011;3707;43.618;25.342;2022-08-19T06:26:39;12.70;;;8.20;;
7332;SDS011;3707;43.618;25.342;2022-08-19T06:29:10;9.73;;;7.43;;
7332;SDS011;3707;43.618;25.342;2022-08-19T06:31:40;14.25;;;7.90;;
7332;SDS011;3707;43.618;25.342;2022-08-19T06:34:08;8.15;;;7.30;;
7332;SDS011;3707;43.618;25.342;2022-08-19T06:36:37;14.23;;;6.90;;
7332;SDS011;3707;43.618;25.342;2022-08-19T06:39:06;8.80;;;6.78;;
7332;SDS011;3707;43.618;25.342;2022-08-19T06:41:35;10.60;;;7.32;;
7332;SDS011;3707;43.618;25.342;2022-08-19T06:44:03;11.98;;;6.68;;
7332;SDS011;3707;43.618;25.342;2022-08-19T06:46:32;7.85;;;6.75;;
7332;SDS011;3707;43.618;25.342;2022-08-19T06:48:59;9.18;;;6.72;;
7332;SDS011;3707;43.618;25.342;2022-08-19T06:51:26;7.15;;;6.22;;
7332;SDS011;3707;43.618;25.342;2022-08-19T06:53:54;7.03;;;5.85;;
7332;SDS011;3707;43.618;25.342;2022-08-19T06:56:22;7.72;;;6.88;;
7332;SDS011;3707;43.618;25.342;2022-08-19T06:58:55;10.40;;;6.30;;
7332;SDS011;3707;43.618;25.342;2022-08-19T07:01:22;8.32;;;6.72;;
7332;SDS011;3707;43.618;25.342;2022-08-19T07:03:51;16.02;;;6.53;;
7332;SDS011;3707;43.618;25.342;2022-08-19T07:06:18;10.38;;;6.88;;
7332;SDS011;3707;43.618;25.342;2022-08-19T07:08:46;10.35;;;5.95;;
7332;SDS011;3707;43.618;25.342;2022-08-19T07:11:14;6.90;;;6.20;;
7332;SDS011;3707;43.618;25.342;2022-08-19T07:13:44;7.53;;;6.82;;
7332;SDS011;3707;43.618;25.342;2022-08-19T07:16:12;11.05;;;5.70;;
7332;SDS011;3707;43.618;25.342;2022-08-19T07:18:41;7.50;;;6.63;;
7332;SDS011;3707;43.618;25.342;2022-08-19T07:21:12;13.63;;;6.80;;
7332;SDS011;3707;43.618;25.342;2022-08-19T07:23:41;8.43;;;6.22;;
7332;SDS011;3707;43.618;25.342;2022-08-19T07:26:10;7.70;;;5.78;;
7332;SDS011;3707;43.618;25.342;2022-08-19T07:28:39;11.82;;;6.88;;
7332;SDS011;3707;43.618;25.342;2022-08-19T07:31:09;7.38;;;6.32;;
7332;SDS011;3707;43.618;25.342;2022-08-19T07:33:38;9.50;;;6.65;;
7332;SDS011;3707;43.618;25.342;2022-08-19T07:36:07;9.63;;;6.85;;
7332;SDS011;3707;43.618;25.342;2022-08-19T07:38:38;12.20;;;5.97;;
7332;SDS011;3707;43.618;25.342;2022-08-19T07:41:08;12.35;;;6.45;;
7332;SDS011;3707;43.618;25.342;2022-08-19T07:43:36;9.07;;;6.32;;
7332;SDS011;3707;43.618;25.342;2022-08-19T07:46:03;8.85;;;6.38;;
7332;SDS011;3707;43.618;25.342;2022-08-19T07:48:30;8.07;;;6.22;;
7332;SDS011;3707;43.618;25.342;2022-08-19T07:50:58;7.32;;;6.47;;
7332;SDS011;3707;43.618;25.342;2022-08-19T07:53:28;8.27;;;7.00;;
7332;SDS011;3707;43.618;25.342;2022-08-19T07:55:57;8.27;;;6.45;;
7332;SDS011;3707;43.618;25.342;2022-08-19T07:58:28;9.48;;;6.32;;
7332;SDS011;3707;43.618;25.342;2022-08-19T08:00:57;9.32;;;5.95;;
7332;SDS011;3707;43.618;25.342;2022-08-19T08:03:24;7.07;;;6.40;;
7332;SDS011;3707;43.618;25.342;2022-08-19T08:06:06;8.65;;;6.53;;
7332;SDS011;3707;43.618;25.342;2022-08-19T08:08:50;12.10;;;6.70;;
7332;SDS011;3707;43.618;25.342;2022-08-19T08:11:33;9.10;;;6.85;;
7332;SDS011;3707;43.618;25.342;2022-08-19T08:14:00;10.40;;;5.75;;
7332;SDS011;3707;43.618;25.342;2022-08-19T08:16:27;10.43;;;6.13;;
7332;SDS011;3707;43.618;25.342;2022-08-19T08:18:56;8.25;;;5.60;;
7332;SDS011;3707;43.618;25.342;2022-08-19T08:21:23;6.15;;;5.50;;
7332;SDS011;3707;43.618;25.342;2022-08-19T08:23:49;5.53;;;4.80;;
7332;SDS011;3707;43.618;25.342;2022-08-19T08:26:17;8.02;;;5.38;;
7332;SDS011;3707;43.618;25.342;2022-08-19T08:28:45;4.15;;;3.85;;
7332;SDS011;3707;43.618;25.342;2022-08-19T08:31:12;7.72;;;4.75;;
7332;SDS011;3707;43.618;25.342;2022-08-19T08:33:39;6.32;;;5.43;;
7332;SDS011;3707;43.618;25.342;2022-08-19T08:36:07;6.70;;;5.22;;
7332;SDS011;3707;43.618;25.342;2022-08-19T08:38:36;10.38;;;5.35;;
7332;SDS011;3707;43.618;25.342;2022-08-19T08:41:07;6.75;;;5.18;;
7332;SDS011;3707;43.618;25.342;2022-08-19T08:43:46;14.82;;;5.68;;
7332;SDS011;3707;43.618;25.342;2022-08-19T08:46:17;6.20;;;4.85;;
7332;SDS011;3707;43.618;25.342;2022-08-19T08:48:49;6.28;;;5.13;;
7332;SDS011;3707;43.618;25.342;2022-08-19T08:51:21;8.18;;;5.28;;
7332;SDS011;3707;43.618;25.342;2022-08-19T08:53:52;5.43;;;4.72;;
7332;SDS011;3707;43.618;25.342;2022-08-19T08:56:20;5.50;;;5.00;;
7332;SDS011;3707;43.618;25.342;2022-08-19T08:58:51;11.10;;;5.57;;
7332;SDS011;3707;43.618;25.342;2022-08-19T09:01:22;8.05;;;5.45;;
7332;SDS011;3707;43.618;25.342;2022-08-19T09:03:50;7.85;;;5.18;;
7332;SDS011;3707;43.618;25.342;2022-08-19T09:06:19;7.13;;;5.55;;
7332;SDS011;3707;43.618;25.342;2022-08-19T09:08:54;8.63;;;5.70;;
7332;SDS011;3707;43.618;25.342;2022-08-19T09:11:33;7.88;;;5.10;;
7332;SDS011;3707;43.618;25.342;2022-08-19T09:14:12;6.30;;;5.70;;
7332;SDS011;3707;43.618;25.342;2022-08-19T09:16:46;6.00;;;5.40;;
7332;SDS011;3707;43.618;25.342;2022-08-19T09:19:14;8.88;;;5.47;;
7332;SDS011;3707;43.618;25.342;2022-08-19T09:21:42;8.00;;;5.50;;
7332;SDS011;3707;43.618;25.342;2022-08-19T09:24:10;7.15;;;5.32;;
7332;SDS011;3707;43.618;25.342;2022-08-19T09:26:38;6.40;;;5.18;;
7332;SDS011;3707;43.618;25.342;2022-08-19T09:29:05;7.43;;;5.40;;
7332;SDS011;3707;43.618;25.342;2022-08-19T09:31:33;9.88;;;5.45;;
7332;SDS011;3707;43.618;25.342;2022-08-19T09:34:00;11.35;;;5.60;;
7332;SDS011;3707;43.618;25.342;2022-08-19T09:36:30;7.75;;;6.10;;
7332;SDS011;3707;43.618;25.342;2022-08-19T09:38:59;7.97;;;6.07;;
7332;SDS011;3707;43.618;25.342;2022-08-19T09:41:26;9.98;;;5.75;;
7332;SDS011;3707;43.618;25.342;2022-08-19T09:43:53;11.00;;;5.57;;
7332;SDS011;3707;43.618;25.342;2022-08-19T09:46:23;7.28;;;6.13;;
7332;SDS011;3707;43.618;25.342;2022-08-19T09:48:52;10.13;;;5.80;;
7332;SDS011;3707;43.618;25.342;2022-08-19T09:51:22;10.80;;;5.55;;
7332;SDS011;3707;43.618;25.342;2022-08-19T09:53:51;5.95;;;5.18;;
7332;SDS011;3707;43.618;25.342;2022-08-19T09:56:20;8.00;;;5.55;;
7332;SDS011;3707;43.618;25.342;2022-08-19T09:58:48;10.10;;;5.80;;
7332;SDS011;3707;43.618;25.342;2022-08-19T10:01:15;9.02;;;5.93;;
7332;SDS011;3707;43.618;25.342;2022-08-19T10:03:46;15.07;;;6.50;;
7332;SDS011;3707;43.618;25.342;2022-08-19T10:06:15;9.80;;;5.93;;
7332;SDS011;3707;43.618;25.342;2022-08-19T10:08:43;7.22;;;5.97;;
7332;SDS011;3707;43.618;25.342;2022-08-19T10:11:10;8.27;;;5.68;;
7332;SDS011;3707;43.618;25.342;2022-08-19T10:13:39;6.70;;;5.57;;
7332;SDS011;3707;43.618;25.342;2022-08-19T10:16:06;10.82;;;6.18;;
7332;SDS011;3707;43.618;25.342;2022-08-19T10:18:35;5.65;;;4.97;;
7332;SDS011;3707;43.618;25.342;2022-08-19T10:21:04;9.45;;;6.32;;
7332;SDS011;3707;43.618;25.342;2022-08-19T10:23:35;14.98;;;5.88;;
7332;SDS011;3707;43.618;25.342;2022-08-19T10:26:03;9.65;;;5.50;;
7332;SDS011;3707;43.618;25.342;2022-08-19T10:28:31;7.85;;;5.30;;
7332;SDS011;3707;43.618;25.342;2022-08-19T10:31:03;9.85;;;5.82;;
7332;SDS011;3707;43.618;25.342;2022-08-19T10:33:31;17.25;;;6.03;;
7332;SDS011;3707;43.618;25.342;2022-08-19T10:36:00;11.25;;;6.78;;
7332;SDS011;3707;43.618;25.342;2022-08-19T10:38:27;13.43;;;7.72;;
7332;SDS011;3707;43.618;25.342;2022-08-19T10:40:56;7.65;;;6.10;;
7332;SDS011;3707;43.618;25.342;2022-08-19T10:43:23;7.88;;;6.05;;
7332;SDS011;3707;43.618;25.342;2022-08-19T10:45:54;8.35;;;5.68;;
7332;SDS011;3707;43.618;25.342;2022-08-19T10:48:24;12.13;;;5.97;;
7332;SDS011;3707;43.618;25.342;2022-08-19T10:50:51;5.95;;;5.45;;
7332;SDS011;3707;43.618;25.342;2022-08-19T10:53:35;10.52;;;5.78;;
7332;SDS011;3707;43.618;25.342;2022-08-19T10:56:04;8.60;;;5.93;;
7332;SDS011;3707;43.618;25.342;2022-08-19T10:58:48;10.40;;;5.97;;
7332;SDS011;3707;43.618;25.342;2022-08-19T11:01:15;6.75;;;5.85;;
7332;SDS011;3707;43.618;25.342;2022-08-19T11:03:42;8.88;;;6.68;;
7332;SDS011;3707;43.618;25.342;2022-08-19T11:06:10;9.30;;;6.78;;
7332;SDS011;3707;43.618;25.342;2022-08-19T11:08:37;7.80;;;6.20;;
7332;SDS011;3707;43.618;25.342;2022-08-19T11:11:07;9.05;;;6.43;;
7332;SDS011;3707;43.618;25.342;2022-08-19T11:13:34;7.20;;;6.05;;
7332;SDS011;3707;43.618;25.342;2022-08-19T11:16:04;10.70;;;6.88;;
7332;SDS011;3707;43.618;25.342;2022-08-19T11:18:33;8.27;;;6.63;;
7332;SDS011;3707;43.618;25.342;2022-08-19T11:21:05;6.80;;;5.38;;
7332;SDS011;3707;43.618;25.342;2022-08-19T11:23:34;7.32;;;5.82;;
7332;SDS011;3707;43.618;25.342;2022-08-19T11:26:01;9.20;;;5.90;;
7332;SDS011;3707;43.618;25.342;2022-08-19T11:28:29;9.70;;;6.25;;
7332;SDS011;3707;43.618;25.342;2022-08-19T11:30:56;13.93;;;6.40;;
7332;SDS011;3707;43.618;25.342;2022-08-19T11:33:23;12.23;;;6.43;;
7332;SDS011;3707;43.618;25.342;2022-08-19T11:35:51;8.10;;;5.63;;
7332;SDS011;3707;43.618;25.342;2022-08-19T11:38:18;8.48;;;6.38;;
7332;SDS011;3707;43.618;25.342;2022-08-19T11:40:45;8.13;;;5.80;;
7332;SDS011;3707;43.618;25.342;2022-08-19T11:43:19;9.73;;;5.75;;
7332;SDS011;3707;43.618;25.342;2022-08-19T11:45:47;8.55;;;5.57;;
7332;SDS011;3707;43.618;25.342;2022-08-19T11:48:15;9.90;;;5.95;;
7332;SDS011;3707;43.618;25.342;2022-08-19T11:50:42;8.23;;;6.00;;
7332;SDS011;3707;43.618;25.342;2022-08-19T11:53:09;9.52;;;6.32;;
7332;SDS011;3707;43.618;25.342;2022-08-19T11:55:36;8.52;;;5.65;;
7332;SDS011;3707;43.618;25.342;2022-08-19T11:58:04;10.68;;;5.60;;
7332;SDS011;3707;43.618;25.342;2022-08-19T12:00:32;11.15;;;6.22;;
7332;SDS011;3707;43.618;25.342;2022-08-19T12:03:01;9.82;;;5.70;;
7332;SDS011;3707;43.618;25.342;2022-08-19T12:05:28;11.88;;;5.72;;
7332;SDS011;3707;43.618;25.342;2022-08-19T12:07:55;10.98;;;6.15;;
7332;SDS011;3707;43.618;25.342;2022-08-19T12:10:22;8.52;;;6.22;;
7332;SDS011;3707;43.618;25.342;2022-08-19T12:12:50;6.60;;;5.97;;
7332;SDS011;3707;43.618;25.342;2022-08-19T12:15:17;8.20;;;5.70;;
7332;SDS011;3707;43.618;25.342;2022-08-19T12:17:43;9.85;;;5.70;;
7332;SDS011;3707;43.618;25.342;2022-08-19T12:20:12;5.93;;;5.32;;
7332;SDS011;3707;43.618;25.342;2022-08-19T12:22:40;8.18;;;5.63;;
7332;SDS011;3707;43.618;25.342;2022-08-19T12:25:08;7.43;;;5.70;;
7332;SDS011;3707;43.618;25.342;2022-08-19T12:27:36;9.07;;;5.60;;
7332;SDS011;3707;43.618;25.342;2022-08-19T12:30:05;10.55;;;5.50;;
7332;SDS011;3707;43.618;25.342;2022-08-19T12:32:34;15.23;;;5.90;;
7332;SDS011;3707;43.618;25.342;2022-08-19T12:35:01;7.00;;;5.50;;
7332;SDS011;3707;43.618;25.342;2022-08-19T12:37:29;9.25;;;6.75;;
7332;SDS011;3707;43.618;25.342;2022-08-19T12:39:57;7.25;;;5.50;;
7332;SDS011;3707;43.618;25.342;2022-08-19T12:42:24;8.32;;;5.50;;
7332;SDS011;3707;43.618;25.342;2022-08-19T12:44:51;7.63;;;5.75;;
7332;SDS011;3707;43.618;25.342;2022-08-19T12:47:18;10.38;;;5.68;;
7332;SDS011;3707;43.618;25.342;2022-08-19T12:49:46;6.20;;;5.57;;
7332;SDS011;3707;43.618;25.342;2022-08-19T12:52:14;6.85;;;6.20;;
7332;SDS011;3707;43.618;25.342;2022-08-19T12:54:43;11.13;;;5.85;;
7332;SDS011;3707;43.618;25.342;2022-08-19T12:57:10;6.90;;;6.20;;
7332;SDS011;3707;43.618;25.342;2022-08-19T12:59:37;8.88;;;5.60;;
7332;SDS011;3707;43.618;25.342;2022-08-19T13:02:05;5.75;;;5.25;;
7332;SDS011;3707;43.618;25.342;2022-08-19T13:04:33;12.23;;;5.55;;
7332;SDS011;3707;43.618;25.342;2022-08-19T13:07:05;11.95;;;6.43;;
7332;SDS011;3707;43.618;25.342;2022-08-19T13:09:33;8.43;;;5.32;;
7332;SDS011;3707;43.618;25.342;2022-08-19T13:12:02;8.07;;;5.78;;
7332;SDS011;3707;43.618;25.342;2022-08-19T13:14:33;9.90;;;5.90;;
7332;SDS011;3707;43.618;25.342;2022-08-19T13:17:00;10.15;;;5.35;;
7332;SDS011;3707;43.618;25.342;2022-08-19T13:19:27;7.72;;;5.78;;
7332;SDS011;3707;43.618;25.342;2022-08-19T13:21:55;8.75;;;5.82;;
7332;SDS011;3707;43.618;25.342;2022-08-19T13:24:23;7.03;;;5.20;;
7332;SDS011;3707;43.618;25.342;2022-08-19T13:26:50;8.00;;;5.93;;
7332;SDS011;3707;43.618;25.342;2022-08-19T13:29:19;7.72;;;5.13;;
7332;SDS011;3707;43.618;25.342;2022-08-19T13:32:03;7.88;;;5.50;;
7332;SDS011;3707;43.618;25.342;2022-08-19T13:34:47;10.07;;;5.60;;
7332;SDS011;3707;43.618;25.342;2022-08-19T13:37:14;5.75;;;5.05;;
7332;SDS011;3707;43.618;25.342;2022-08-19T13:40:01;6.95;;;6.22;;
7332;SDS011;3707;43.618;25.342;2022-08-19T13:42:28;8.85;;;5.65;;
7332;SDS011;3707;43.618;25.342;2022-08-19T13:44:57;6.63;;;5.28;;
7332;SDS011;3707;43.618;25.342;2022-08-19T13:47:24;7.68;;;5.45;;
7332;SDS011;3707;43.618;25.342;2022-08-19T13:49:51;6.82;;;5.47;;
7332;SDS011;3707;43.618;25.342;2022-08-19T13:52:18;7.68;;;5.45;;
7332;SDS011;3707;43.618;25.342;2022-08-19T13:54:45;7.20;;;5.38;;
7332;SDS011;3707;43.618;25.342;2022-08-19T13:57:13;9.45;;;5.50;;
7332;SDS011;3707;43.618;25.342;2022-08-19T13:59:40;6.25;;;5.30;;
7332;SDS011;3707;43.618;25.342;2022-08-19T14:02:08;5.88;;;5.10;;
7332;SDS011;3707;43.618;25.342;2022-08-19T14:04:35;5.50;;;4.97;;
7332;SDS011;3707;43.618;25.342;2022-08-19T14:07:03;6.07;;;5.10;;
7332;SDS011;3707;43.618;25.342;2022-08-19T14:09:30;6.55;;;5.40;;
7332;SDS011;3707;43.618;25.342;2022-08-19T14:11:57;10.50;;;5.10;;
7332;SDS011;3707;43.618;25.342;2022-08-19T14:14:24;5.68;;;5.18;;
7332;SDS011;3707;43.618;25.342;2022-08-19T14:16:51;6.28;;;5.25;;
7332;SDS011;3707;43.618;25.342;2022-08-19T14:19:19;6.47;;;5.05;;
7332;SDS011;3707;43.618;25.342;2022-08-19T14:21:46;5.50;;;5.10;;
7332;SDS011;3707;43.618;25.342;2022-08-19T14:24:13;8.38;;;5.22;;
7332;SDS011;3707;43.618;25.342;2022-08-19T14:26:40;6.80;;;4.97;;
7332;SDS011;3707;43.618;25.342;2022-08-19T14:29:07;6.60;;;5.15;;
7332;SDS011;3707;43.618;25.342;2022-08-19T14:31:34;6.82;;;4.97;;
7332;SDS011;3707;43.618;25.342;2022-08-19T14:34:00;5.88;;;5.32;;
7332;SDS011;3707;43.618;25.342;2022-08-19T14:36:29;5.38;;;4.88;;
7332;SDS011;3707;43.618;25.342;2022-08-19T14:38:57;5.78;;;4.90;;
7332;SDS011;3707;43.618;25.342;2022-08-19T14:41:25;8.48;;;5.20;;
7332;SDS011;3707;43.618;25.342;2022-08-19T14:43:53;5.97;;;4.75;;
7332;SDS011;3707;43.618;25.342;2022-08-19T14:46:21;7.65;;;5.15;;
7332;SDS011;3707;43.618;25.342;2022-08-19T14:48:49;8.48;;;5.03;;
7332;SDS011;3707;43.618;25.342;2022-08-19T14:51:17;5.97;;;4.90;;
7332;SDS011;3707;43.618;25.342;2022-08-19T14:53:46;7.88;;;5.43;;
7332;SDS011;3707;43.618;25.342;2022-08-19T14:56:14;5.57;;;5.00;;
7332;SDS011;3707;43.618;25.342;2022-08-19T14:58:43;5.80;;;5.05;;
7332;SDS011;3707;43.618;25.342;2022-08-19T15:01:10;7.68;;;5.53;;
7332;SDS011;3707;43.618;25.342;2022-08-19T15:03:38;6.22;;;4.90;;
7332;SDS011;3707;43.618;25.342;2022-08-19T15:06:06;6.63;;;4.65;;